sensor_id;sensor_type;location;lat;lon;timestamp;pressure;altitude;pressure_sealevel;temperature;humidity
65997;BME280;52765;52.258;21.052;2023-05-12T00:00:18;101274.41;;;12.05;44.10
65997;BME280;52765;52.258;21.052;2023-05-12T00:02:43;101285.22;;;12.05;43.91
65997;BME280;52765;52.258;21.052;2023-05-12T00:05:09;101280.97;;;12.02;44.08
65997;BME280;52765;52.258;21.052;2023-05-12T00:07:35;101284.09;;;12.08;43.88
65997;BME280;52765;52.258;21.052;2023-05-12T00:10:01;101282.81;;;12.12;43.83
65997;BME280;52765;52.258;21.052;2023-05-12T00:12:26;101283.50;;;12.14;43.40
65997;BME280;52765;52.258;21.052;2023-05-12T00:14:52;101278.69;;;12.17;43.42
65997;BME280;52765;52.258;21.052;2023-05-12T00:17:17;101281.94;;;12.21;43.28
65997;BME280;52765;52.258;21.052;2023-05-12T00:19:43;101285.50;;;12.21;43.51
65997;BME280;52765;52.258;21.052;2023-05-12T00:22:09;101283.22;;;12.17;42.93
65997;BME280;52765;52.258;21.052;2023-05-12T00:24:35;101282.78;;;12.21;42.90
65997;BME280;52765;52.258;21.052;2023-05-12T00:27:01;101283.19;;;12.27;42.68
65997;BME280;52765;52.258;21.052;2023-05-12T00:29:26;101285.50;;;12.21;42.80
65997;BME280;52765;52.258;21.052;2023-05-12T00:31:54;101284.22;;;12.16;42.72
65997;BME280;52765;52.258;21.052;2023-05-12T00:34:19;101289.31;;;12.19;42.90
65997;BME280;52765;52.258;21.052;2023-05-12T00:36:45;101286.34;;;12.22;42.91
65997;BME280;52765;52.258;21.052;2023-05-12T00:39:10;101293.75;;;12.20;42.77
65997;BME280;52765;52.258;21.052;2023-05-12T00:41:36;101284.94;;;12.18;42.85
65997;BME280;52765;52.258;21.052;2023-05-12T00:44:01;101290.63;;;12.15;42.82
65997;BME280;52765;52.258;21.052;2023-05-12T00:46:27;101297.00;;;12.14;42.90
65997;BME280;52765;52.258;21.052;2023-05-12T00:48:52;101294.31;;;12.14;42.60
65997;BME280;52765;52.258;21.052;2023-05-12T00:51:18;101298.03;;;12.13;42.69
65997;BME280;52765;52.258;21.052;2023-05-12T00:53:44;101291.91;;;12.11;42.82
65997;BME280;52765;52.258;21.052;2023-05-12T00:56:11;101296.59;;;12.09;42.99
65997;BME280;52765;52.258;21.052;2023-05-12T00:58:36;101298.72;;;12.15;42.64
65997;BME280;52765;52.258;21.052;2023-05-12T01:01:02;101293.47;;;12.13;42.56
65997;BME280;52765;52.258;21.052;2023-05-12T01:03:28;101296.59;;;12.09;42.68
65997;BME280;52765;52.258;21.052;2023-05-12T01:06:22;101307.66;;;12.15;42.82
65997;BME280;52765;52.258;21.052;2023-05-12T01:08:51;101308.25;;;12.09;42.66
65997;BME280;52765;52.258;21.052;2023-05-12T01:11:17;101304.00;;;12.07;42.75
65997;BME280;52765;52.258;21.052;2023-05-12T01:14:06;101308.25;;;12.09;42.66
65997;BME280;52765;52.258;21.052;2023-05-12T01:16:57;101313.06;;;12.06;42.73
65997;BME280;52765;52.258;21.052;2023-05-12T01:19:59;101310.38;;;12.06;42.63
65997;BME280;52765;52.258;21.052;2023-05-12T01:22:53;101315.06;;;12.03;42.77
65997;BME280;52765;52.258;21.052;2023-05-12T01:26:17;101305.72;;;11.98;43.06
65997;BME280;52765;52.258;21.052;2023-05-12T01:28:50;101318.50;;;11.96;43.01
65997;BME280;52765;52.258;21.052;2023-05-12T01:31:21;101309.34;;;11.87;43.37
65997;BME280;52765;52.258;21.052;2023-05-12T01:33:57;101298.72;;;11.76;42.97
65997;BME280;52765;52.258;21.052;2023-05-12T01:39:49;101318.75;;;11.83;43.44
65997;BME280;52765;52.258;21.052;2023-05-12T01:42:41;101316.47;;;11.88;43.30
65997;BME280;52765;52.258;21.052;2023-05-12T01:45:30;101315.91;;;11.84;43.65
65997;BME280;52765;52.258;21.052;2023-05-12T01:50:50;101319.16;;;11.78;43.38
65997;BME280;52765;52.258;21.052;2023-05-12T01:53:17;101316.75;;;11.75;43.49
65997;BME280;52765;52.258;21.052;2023-05-12T01:55:42;101323.28;;;11.73;43.48
65997;BME280;52765;52.258;21.052;2023-05-12T01:58:08;101325.56;;;11.68;43.62
65997;BME280;52765;52.258;21.052;2023-05-12T02:00:33;101319.28;;;11.67;43.68
65997;BME280;52765;52.258;21.052;2023-05-12T02:02:59;101328.41;;;11.66;43.97
65997;BME280;52765;52.258;21.052;2023-05-12T02:05:24;101320.00;;;11.59;44.18
65997;BME280;52765;52.258;21.052;2023-05-12T02:07:50;101321.00;;;11.58;43.84
65997;BME280;52765;52.258;21.052;2023-05-12T02:10:16;101323.81;;;11.57;44.08
65997;BME280;52765;52.258;21.052;2023-05-12T02:12:41;101317.31;;;11.59;44.01
65997;BME280;52765;52.258;21.052;2023-05-12T02:15:07;101315.47;;;11.60;43.83
65997;BME280;52765;52.258;21.052;2023-05-12T02:17:33;101320.28;;;11.56;44.02
65997;BME280;52765;52.258;21.052;2023-05-12T02:19:58;101318.69;;;11.54;44.21
65997;BME280;52765;52.258;21.052;2023-05-12T02:22:24;101324.69;;;11.47;44.17
65997;BME280;52765;52.258;21.052;2023-05-12T02:24:50;101315.72;;;11.47;44.20
65997;BME280;52765;52.258;21.052;2023-05-12T02:27:16;101312.84;;;11.39;44.83
65997;BME280;52765;52.258;21.052;2023-05-12T02:29:41;101326.50;;;11.47;44.35
65997;BME280;52765;52.258;21.052;2023-05-12T02:32:06;101324.25;;;11.42;44.67
65997;BME280;52765;52.258;21.052;2023-05-12T02:34:32;101329.03;;;11.39;44.22
65997;BME280;52765;52.258;21.052;2023-05-12T02:36:58;101331.03;;;11.37;44.81
65997;BME280;52765;52.258;21.052;2023-05-12T02:39:25;101325.06;;;11.33;44.82
65997;BME280;52765;52.258;21.052;2023-05-12T02:41:50;101333.00;;;11.35;44.70
65997;BME280;52765;52.258;21.052;2023-05-12T02:44:16;101335.28;;;11.29;44.66
65997;BME280;52765;52.258;21.052;2023-05-12T02:46:42;101335.41;;;11.28;45.14
65997;BME280;52765;52.258;21.052;2023-05-12T02:49:08;101330.59;;;11.32;44.53
65997;BME280;52765;52.258;21.052;2023-05-12T02:51:33;101335.97;;;11.32;44.50
65997;BME280;52765;52.258;21.052;2023-05-12T02:53:59;101337.72;;;11.33;44.30
65997;BME280;52765;52.258;21.052;2023-05-12T02:56:24;101343.09;;;11.33;44.38
65997;BME280;52765;52.258;21.052;2023-05-12T02:58:50;101351.19;;;11.33;44.60
65997;BME280;52765;52.258;21.052;2023-05-12T03:01:15;101347.75;;;11.30;44.71
65997;BME280;52765;52.258;21.052;2023-05-12T03:03:41;101341.66;;;11.28;44.60
65997;BME280;52765;52.258;21.052;2023-05-12T03:06:06;101343.63;;;11.26;44.62
65997;BME280;52765;52.258;21.052;2023-05-12T03:08:32;101343.78;;;11.25;45.17
65997;BME280;52765;52.258;21.052;2023-05-12T03:10:57;101351.03;;;11.24;44.92
65997;BME280;52765;52.258;21.052;2023-05-12T03:13:23;101342.66;;;11.27;44.75
65997;BME280;52765;52.258;21.052;2023-05-12T03:15:48;101340.81;;;11.28;44.91
65997;BME280;52765;52.258;21.052;2023-05-12T03:18:14;101338.25;;;11.26;44.88
65997;BME280;52765;52.258;21.052;2023-05-12T03:20:39;101330.84;;;11.28;44.51
65997;BME280;52765;52.258;21.052;2023-05-12T03:23:05;101341.38;;;11.32;44.86
65997;BME280;52765;52.258;21.052;2023-05-12T03:25:30;101350.19;;;11.34;44.82
65997;BME280;52765;52.258;21.052;2023-05-12T03:27:56;101343.38;;;11.29;44.64
65997;BME280;52765;52.258;21.052;2023-05-12T03:30:21;101348.50;;;11.33;44.81
65997;BME280;52765;52.258;21.052;2023-05-12T03:32:47;101342.78;;;11.36;44.96
65997;BME280;52765;52.258;21.052;2023-05-12T03:35:12;101351.75;;;11.36;44.84
65997;BME280;52765;52.258;21.052;2023-05-12T03:37:38;101361.69;;;11.36;45.05
65997;BME280;52765;52.258;21.052;2023-05-12T03:40:03;101354.19;;;11.39;44.93
65997;BME280;52765;52.258;21.052;2023-05-12T03:42:30;101359.44;;;11.41;44.50
65997;BME280;52765;52.258;21.052;2023-05-12T03:44:56;101355.59;;;11.43;44.79
65997;BME280;52765;52.258;21.052;2023-05-12T03:47:22;101358.31;;;11.43;44.90
65997;BME280;52765;52.258;21.052;2023-05-12T03:49:47;101366.97;;;11.47;44.88
65997;BME280;52765;52.258;21.052;2023-05-12T03:52:13;101361.72;;;11.45;44.93
65997;BME280;52765;52.258;21.052;2023-05-12T03:54:38;101364.13;;;11.48;45.32
65997;BME280;52765;52.258;21.052;2023-05-12T03:57:04;101362.31;;;11.49;44.92
65997;BME280;52765;52.258;21.052;2023-05-12T03:59:30;101369.66;;;11.47;44.62
65997;BME280;52765;52.258;21.052;2023-05-12T04:01:56;101368.69;;;11.48;44.65
65997;BME280;52765;52.258;21.052;2023-05-12T04:04:22;101369.66;;;11.47;44.55
65997;BME280;52765;52.258;21.052;2023-05-12T04:06:47;101369.25;;;11.52;44.34
65997;BME280;52765;52.258;21.052;2023-05-12T04:09:13;101380.34;;;11.58;44.34
65997;BME280;52765;52.258;21.052;2023-05-12T04:11:39;101372.97;;;11.60;44.25
65997;BME280;52765;52.258;21.052;2023-05-12T04:14:04;101384.63;;;11.61;44.18
65997;BME280;52765;52.258;21.052;2023-05-12T04:16:30;101387.91;;;11.64;44.35
65997;BME280;52765;52.258;21.052;2023-05-12T04:18:55;101385.66;;;11.70;44.39
65997;BME280;52765;52.258;21.052;2023-05-12T04:21:21;101386.50;;;11.80;44.16
65997;BME280;52765;52.258;21.052;2023-05-12T04:23:50;101389.38;;;11.88;44.38
65997;BME280;52765;52.258;21.052;2023-05-12T04:26:17;101375.03;;;11.88;44.33
65997;BME280;52765;52.258;21.052;2023-05-12T04:28:42;101376.47;;;11.92;44.26
65997;BME280;52765;52.258;21.052;2023-05-12T04:31:07;101383.88;;;11.99;44.18
65997;BME280;52765;52.258;21.052;2023-05-12T04:33:33;101386.44;;;12.01;44.20
65997;BME280;52765;52.258;21.052;2023-05-12T04:35:58;101380.91;;;12.02;44.27
65997;BME280;52765;52.258;21.052;2023-05-12T04:38:25;101389.28;;;12.09;44.22
65997;BME280;52765;52.258;21.052;2023-05-12T04:40:50;101386.75;;;12.17;44.20
65997;BME280;52765;52.258;21.052;2023-05-12T04:43:16;101393.53;;;12.21;44.14
65997;BME280;52765;52.258;21.052;2023-05-12T04:45:41;101388.00;;;12.23;43.96
65997;BME280;52765;52.258;21.052;2023-05-12T04:48:08;101387.88;;;12.25;43.97
65997;BME280;52765;52.258;21.052;2023-05-12T04:50:33;101389.41;;;12.37;43.56
65997;BME280;52765;52.258;21.052;2023-05-12T04:52:59;101397.09;;;12.42;43.56
65997;BME280;52765;52.258;21.052;2023-05-12T04:55:25;101396.09;;;12.43;43.56
65997;BME280;52765;52.258;21.052;2023-05-12T04:57:50;101400.91;;;12.49;43.61
65997;BME280;52765;52.258;21.052;2023-05-12T05:00:16;101399.22;;;12.57;43.56
65997;BME280;52765;52.258;21.052;2023-05-12T05:02:44;101400.19;;;12.66;43.32
65997;BME280;52765;52.258;21.052;2023-05-12T05:05:10;101395.22;;;12.71;43.55
65997;BME280;52765;52.258;21.052;2023-05-12T05:07:36;101403.59;;;12.78;43.21
65997;BME280;52765;52.258;21.052;2023-05-12T05:10:01;101402.59;;;12.79;43.24
65997;BME280;52765;52.258;21.052;2023-05-12T05:12:27;101402.59;;;12.79;43.41
65997;BME280;52765;52.258;21.052;2023-05-12T05:14:53;101406.97;;;12.90;43.33
65997;BME280;52765;52.258;21.052;2023-05-12T05:17:18;101408.50;;;13.02;43.25
65997;BME280;52765;52.258;21.052;2023-05-12T05:19:44;101421.59;;;13.07;43.08
65997;BME280;52765;52.258;21.052;2023-05-12T05:22:09;101420.00;;;13.14;43.16
65997;BME280;52765;52.258;21.052;2023-05-12T05:24:35;101412.84;;;13.23;42.93
65997;BME280;52765;52.258;21.052;2023-05-12T05:27:00;101411.00;;;13.33;42.62
65997;BME280;52765;52.258;21.052;2023-05-12T05:29:25;101420.50;;;13.37;42.51
65997;BME280;52765;52.258;21.052;2023-05-12T05:31:51;101420.59;;;13.45;42.36
65997;BME280;52765;52.258;21.052;2023-05-12T05:34:17;101416.16;;;13.54;42.38
65997;BME280;52765;52.258;21.052;2023-05-12T05:36:42;101420.97;;;13.60;42.09
65997;BME280;52765;52.258;21.052;2023-05-12T05:39:08;101425.53;;;13.60;42.11
65997;BME280;52765;52.258;21.052;2023-05-12T05:41:34;101420.50;;;13.65;42.22
65997;BME280;52765;52.258;21.052;2023-05-12T05:44:00;101417.91;;;13.73;42.28
65997;BME280;52765;52.258;21.052;2023-05-12T05:46:25;101430.16;;;13.77;42.20
65997;BME280;52765;52.258;21.052;2023-05-12T05:48:51;101430.41;;;13.84;42.50
65997;BME280;52765;52.258;21.052;2023-05-12T05:51:16;101425.78;;;13.94;42.19
65997;BME280;52765;52.258;21.052;2023-05-12T05:53:42;101436.53;;;14.04;42.33
65997;BME280;52765;52.258;21.052;2023-05-12T05:56:07;101431.50;;;14.09;42.17
65997;BME280;52765;52.258;21.052;2023-05-12T05:58:33;101428.75;;;14.19;42.07
65997;BME280;52765;52.258;21.052;2023-05-12T06:00:58;101428.97;;;14.25;41.79
65997;BME280;52765;52.258;21.052;2023-05-12T06:03:25;101429.59;;;14.37;41.36
65997;BME280;52765;52.258;21.052;2023-05-12T06:05:51;101435.94;;;14.46;41.38
65997;BME280;52765;52.258;21.052;2023-05-12T06:08:17;101440.59;;;14.54;41.44
65997;BME280;52765;52.258;21.052;2023-05-12T06:10:43;101431.00;;;14.59;41.35
65997;BME280;52765;52.258;21.052;2023-05-12T06:13:08;101430.91;;;14.69;41.06
65997;BME280;52765;52.258;21.052;2023-05-12T06:15:34;101433.91;;;14.84;41.47
65997;BME280;52765;52.258;21.052;2023-05-12T06:18:00;101434.94;;;14.91;40.93
65997;BME280;52765;52.258;21.052;2023-05-12T06:20:25;101428.38;;;14.94;41.08
65997;BME280;52765;52.258;21.052;2023-05-12T06:22:51;101432.34;;;15.08;41.21
65997;BME280;52765;52.258;21.052;2023-05-12T06:25:17;101423.63;;;15.22;41.08
65997;BME280;52765;52.258;21.052;2023-05-12T06:27:42;101437.59;;;15.35;40.05
65997;BME280;52765;52.258;21.052;2023-05-12T06:30:08;101431.19;;;15.45;40.30
65997;BME280;52765;52.258;21.052;2023-05-12T06:32:34;101431.88;;;15.47;39.90
65997;BME280;52765;52.258;21.052;2023-05-12T06:34:59;101428.84;;;15.50;39.49
65997;BME280;52765;52.258;21.052;2023-05-12T06:37:25;101434.47;;;15.57;40.01
65997;BME280;52765;52.258;21.052;2023-05-12T06:39:51;101437.06;;;15.66;39.58
65997;BME280;52765;52.258;21.052;2023-05-12T06:42:16;101438.09;;;15.73;38.92
65997;BME280;52765;52.258;21.052;2023-05-12T06:44:41;101437.81;;;15.85;39.35
65997;BME280;52765;52.258;21.052;2023-05-12T06:47:07;101429.03;;;15.91;39.29
65997;BME280;52765;52.258;21.052;2023-05-12T06:49:33;101442.13;;;16.04;39.25
65997;BME280;52765;52.258;21.052;2023-05-12T06:52:02;101440.28;;;16.13;38.45
65997;BME280;52765;52.258;21.052;2023-05-12T06:54:27;101438.75;;;16.18;38.72
65997;BME280;52765;52.258;21.052;2023-05-12T06:56:53;101434.88;;;16.21;38.55
65997;BME280;52765;52.258;21.052;2023-05-12T06:59:18;101433.81;;;16.22;38.51
65997;BME280;52765;52.258;21.052;2023-05-12T07:01:44;101433.84;;;16.30;38.65
65997;BME280;52765;52.258;21.052;2023-05-12T07:04:09;101440.66;;;16.34;38.15
65997;BME280;52765;52.258;21.052;2023-05-12T07:06:35;101427.41;;;16.39;38.50
65997;BME280;52765;52.258;21.052;2023-05-12T07:09:00;101433.03;;;16.54;38.73
65997;BME280;52765;52.258;21.052;2023-05-12T07:11:26;101430.81;;;16.58;38.09
65997;BME280;52765;52.258;21.052;2023-05-12T07:13:51;101432.16;;;16.70;38.36
65997;BME280;52765;52.258;21.052;2023-05-12T07:16:18;101434.88;;;16.70;37.90
65997;BME280;52765;52.258;21.052;2023-05-12T07:18:44;101433.19;;;16.77;37.46
65997;BME280;52765;52.258;21.052;2023-05-12T07:21:10;101437.78;;;16.93;37.87
65997;BME280;52765;52.258;21.052;2023-05-12T07:23:36;101434.38;;;16.99;36.90
65997;BME280;52765;52.258;21.052;2023-05-12T07:26:03;101435.91;;;17.02;37.05
65997;BME280;52765;52.258;21.052;2023-05-12T07:28:30;101434.19;;;17.09;36.61
65997;BME280;52765;52.258;21.052;2023-05-12T07:31:05;101440.81;;;17.15;35.89
65997;BME280;52765;52.258;21.052;2023-05-12T07:33:31;101437.91;;;17.16;35.61
65997;BME280;52765;52.258;21.052;2023-05-12T07:35:57;101438.22;;;17.30;35.63
65997;BME280;52765;52.258;21.052;2023-05-12T07:38:22;101441.44;;;17.33;35.44
65997;BME280;52765;52.258;21.052;2023-05-12T07:40:48;101436.84;;;17.34;34.51
65997;BME280;52765;52.258;21.052;2023-05-12T07:43:14;101440.22;;;17.44;35.34
65997;BME280;52765;52.258;21.052;2023-05-12T07:45:42;101437.13;;;17.55;35.53
65997;BME280;52765;52.258;21.052;2023-05-12T07:48:07;101440.84;;;17.54;34.93
65997;BME280;52765;52.258;21.052;2023-05-12T07:50:33;101447.28;;;17.62;35.05
65997;BME280;52765;52.258;21.052;2023-05-12T07:52:58;101445.88;;;17.74;34.94
65997;BME280;52765;52.258;21.052;2023-05-12T07:55:24;101445.50;;;17.85;34.00
65997;BME280;52765;52.258;21.052;2023-05-12T07:57:49;101443.63;;;17.86;33.21
65997;BME280;52765;52.258;21.052;2023-05-12T08:00:15;101455.34;;;17.86;33.41
65997;BME280;52765;52.258;21.052;2023-05-12T08:02:41;101446.34;;;17.94;33.69
65997;BME280;52765;52.258;21.052;2023-05-12T08:05:08;101442.75;;;17.93;33.09
65997;BME280;52765;52.258;21.052;2023-05-12T08:07:37;101431.69;;;17.87;32.97
65997;BME280;52765;52.258;21.052;2023-05-12T08:10:04;101439.53;;;17.90;33.62
65997;BME280;52765;52.258;21.052;2023-05-12T08:12:30;101437.44;;;18.00;32.93
65997;BME280;52765;52.258;21.052;2023-05-12T08:14:56;101437.50;;;18.15;32.23
65997;BME280;52765;52.258;21.052;2023-05-12T08:17:25;101449.34;;;18.30;31.01
65997;BME280;52765;52.258;21.052;2023-05-12T08:19:51;101438.44;;;18.30;30.31
65997;BME280;52765;52.258;21.052;2023-05-12T08:22:19;101441.16;;;18.30;30.55
65997;BME280;52765;52.258;21.052;2023-05-12T08:24:45;101452.75;;;18.33;29.73
65997;BME280;52765;52.258;21.052;2023-05-12T08:27:10;101446.97;;;18.27;29.39
65997;BME280;52765;52.258;21.052;2023-05-12T08:29:36;101421.81;;;18.17;29.79
65997;BME280;52765;52.258;21.052;2023-05-12T08:32:01;101443.84;;;18.39;30.17
65997;BME280;52765;52.258;21.052;2023-05-12T08:34:27;101441.09;;;18.39;30.12
65997;BME280;52765;52.258;21.052;2023-05-12T08:36:53;101434.38;;;18.49;30.06
65997;BME280;52765;52.258;21.052;2023-05-12T08:39:19;101439.88;;;18.64;30.02
65997;BME280;52765;52.258;21.052;2023-05-12T08:41:55;101437.78;;;18.66;29.04
65997;BME280;52765;52.258;21.052;2023-05-12T08:44:27;101438.38;;;18.62;28.70
65997;BME280;52765;52.258;21.052;2023-05-12T08:46:53;101444.84;;;18.61;29.22
65997;BME280;52765;52.258;21.052;2023-05-12T08:49:23;101436.41;;;18.71;29.60
65997;BME280;52765;52.258;21.052;2023-05-12T08:51:54;101447.91;;;18.81;29.48
65997;BME280;52765;52.258;21.052;2023-05-12T08:54:21;101428.13;;;18.87;29.08
65997;BME280;52765;52.258;21.052;2023-05-12T08:56:46;101441.88;;;18.94;28.93
65997;BME280;52765;52.258;21.052;2023-05-12T08:59:12;101430.19;;;18.77;28.70
65997;BME280;52765;52.258;21.052;2023-05-12T09:01:38;101434.34;;;18.96;29.06
65997;BME280;52765;52.258;21.052;2023-05-12T09:04:07;101428.88;;;18.96;28.31
65997;BME280;52765;52.258;21.052;2023-05-12T09:06:33;101438.28;;;18.93;28.03
65997;BME280;52765;52.258;21.052;2023-05-12T09:08:59;101438.53;;;18.83;27.91
65997;BME280;52765;52.258;21.052;2023-05-12T09:11:24;101430.53;;;18.82;27.54
65997;BME280;52765;52.258;21.052;2023-05-12T09:14:13;101428.94;;;18.88;27.77
65997;BME280;52765;52.258;21.052;2023-05-12T09:16:44;101421.44;;;19.04;28.43
65997;BME280;52765;52.258;21.052;2023-05-12T09:19:11;101423.72;;;19.16;27.73
65997;BME280;52765;52.258;21.052;2023-05-12T09:21:36;101427.75;;;19.20;28.12
65997;BME280;52765;52.258;21.052;2023-05-12T09:24:04;101427.66;;;19.28;27.90
65997;BME280;52765;52.258;21.052;2023-05-12T09:26:51;101428.13;;;19.47;27.32
65997;BME280;52765;52.258;21.052;2023-05-12T09:29:18;101420.78;;;19.47;27.30
65997;BME280;52765;52.258;21.052;2023-05-12T09:31:51;101425.19;;;19.63;27.43
65997;BME280;52765;52.258;21.052;2023-05-12T09:34:18;101423.78;;;19.67;27.00
65997;BME280;52765;52.258;21.052;2023-05-12T09:36:44;101426.72;;;19.81;26.99
65997;BME280;52765;52.258;21.052;2023-05-12T09:39:19;101420.28;;;19.73;27.05
65997;BME280;52765;52.258;21.052;2023-05-12T09:41:53;101420.00;;;19.68;27.34
65997;BME280;52765;52.258;21.052;2023-05-12T09:44:19;101421.69;;;19.69;27.36
65997;BME280;52765;52.258;21.052;2023-05-12T09:46:46;101409.75;;;19.85;27.54
65997;BME280;52765;52.258;21.052;2023-05-12T09:49:12;101426.88;;;19.94;27.19
65997;BME280;52765;52.258;21.052;2023-05-12T09:51:39;101411.94;;;19.96;26.92
65997;BME280;52765;52.258;21.052;2023-05-12T09:54:06;101418.28;;;19.97;26.45
65997;BME280;52765;52.258;21.052;2023-05-12T09:56:35;101421.09;;;20.04;26.78
65997;BME280;52765;52.258;21.052;2023-05-12T09:59:03;101404.06;;;20.08;26.83
65997;BME280;52765;52.258;21.052;2023-05-12T10:01:30;101411.19;;;20.24;27.20
65997;BME280;52765;52.258;21.052;2023-05-12T10:03:57;101415.56;;;20.40;27.10
65997;BME280;52765;52.258;21.052;2023-05-12T10:06:27;101412.53;;;20.57;26.35
65997;BME280;52765;52.258;21.052;2023-05-12T10:11:27;101400.69;;;20.49;26.07
65997;BME280;52765;52.258;21.052;2023-05-12T10:13:53;101410.81;;;20.49;25.38
65997;BME280;52765;52.258;21.052;2023-05-12T10:16:20;101408.91;;;20.49;25.50
65997;BME280;52765;52.258;21.052;2023-05-12T10:18:49;101405.72;;;20.46;25.89
65997;BME280;52765;52.258;21.052;2023-05-12T10:21:15;101414.81;;;20.53;26.10
65997;BME280;52765;52.258;21.052;2023-05-12T10:23:43;101393.75;;;20.68;26.44
65997;BME280;52765;52.258;21.052;2023-05-12T10:26:09;101398.69;;;20.86;25.65
65997;BME280;52765;52.258;21.052;2023-05-12T10:28:36;101412.25;;;20.95;25.92
65997;BME280;52765;52.258;21.052;2023-05-12T10:31:02;101400.59;;;20.86;25.90
65997;BME280;52765;52.258;21.052;2023-05-12T10:33:29;101400.00;;;20.91;25.64
65997;BME280;52765;52.258;21.052;2023-05-12T10:35:55;101406.41;;;21.04;25.73
65997;BME280;52765;52.258;21.052;2023-05-12T10:38:21;101381.38;;;20.79;25.38
65997;BME280;52765;52.258;21.052;2023-05-12T10:41:00;101393.06;;;20.95;26.24
65997;BME280;52765;52.258;21.052;2023-05-12T10:43:27;101393.97;;;21.02;25.08
65997;BME280;52765;52.258;21.052;2023-05-12T10:46:06;101393.78;;;21.03;25.69
65997;BME280;52765;52.258;21.052;2023-05-12T10:48:32;101402.78;;;20.97;25.64
65997;BME280;52765;52.258;21.052;2023-05-12T10:51:07;101392.13;;;21.09;25.64
65997;BME280;52765;52.258;21.052;2023-05-12T10:53:33;101407.31;;;21.12;25.01
65997;BME280;52765;52.258;21.052;2023-05-12T10:56:02;101389.88;;;21.19;25.12
65997;BME280;52765;52.258;21.052;2023-05-12T10:58:28;101391.19;;;21.30;24.71
65997;BME280;52765;52.258;21.052;2023-05-12T11:00:54;101386.25;;;21.47;24.84
65997;BME280;52765;52.258;21.052;2023-05-12T11:03:23;101394.72;;;21.52;25.02
65997;BME280;52765;52.258;21.052;2023-05-12T11:05:59;101387.56;;;21.65;25.06
65997;BME280;52765;52.258;21.052;2023-05-12T11:08:25;101382.75;;;21.67;24.51
65997;BME280;52765;52.258;21.052;2023-05-12T11:10:52;101383.66;;;21.87;25.46
65997;BME280;52765;52.258;21.052;2023-05-12T11:13:18;101381.13;;;21.86;25.19
65997;BME280;52765;52.258;21.052;2023-05-12T11:15:44;101379.88;;;21.95;25.46
65997;BME280;52765;52.258;21.052;2023-05-12T11:18:10;101374.59;;;21.93;24.82
65997;BME280;52765;52.258;21.052;2023-05-12T11:20:37;101387.09;;;22.16;24.71
65997;BME280;52765;52.258;21.052;2023-05-12T11:23:03;101381.66;;;22.36;24.82
65997;BME280;52765;52.258;21.052;2023-05-12T11:25:28;101377.25;;;22.48;24.51
65997;BME280;52765;52.258;21.052;2023-05-12T11:27:54;101382.94;;;22.47;24.53
65997;BME280;52765;52.258;21.052;2023-05-12T11:30:19;101378.69;;;22.78;24.48
65997;BME280;52765;52.258;21.052;2023-05-12T11:32:45;101376.78;;;22.98;24.70
65997;BME280;52765;52.258;21.052;2023-05-12T11:35:17;101363.22;;;23.17;24.37
65997;BME280;52765;52.258;21.052;2023-05-12T11:37:44;101375.03;;;23.24;24.00
65997;BME280;52765;52.258;21.052;2023-05-12T11:40:21;101364.91;;;23.18;23.68
65997;BME280;52765;52.258;21.052;2023-05-12T11:42:49;101374.44;;;23.15;24.12
65997;BME280;52765;52.258;21.052;2023-05-12T11:45:27;101375.22;;;23.36;23.53
65997;BME280;52765;52.258;21.052;2023-05-12T11:48:08;101373.88;;;23.52;23.18
65997;BME280;52765;52.258;21.052;2023-05-12T11:50:40;101381.19;;;23.71;23.49
65997;BME280;52765;52.258;21.052;2023-05-12T11:53:10;101383.16;;;24.02;22.88
65997;BME280;52765;52.258;21.052;2023-05-12T11:55:54;101368.13;;;24.05;23.13
65997;BME280;52765;52.258;21.052;2023-05-12T11:58:26;101367.59;;;24.22;22.62
65997;BME280;52765;52.258;21.052;2023-05-12T12:00:54;101373.81;;;24.10;22.40
65997;BME280;52765;52.258;21.052;2023-05-12T12:03:22;101388.22;;;24.06;22.32
65997;BME280;52765;52.258;21.052;2023-05-12T12:06:02;101380.19;;;24.04;22.63
65997;BME280;52765;52.258;21.052;2023-05-12T12:08:30;101370.56;;;23.88;22.72
65997;BME280;52765;52.258;21.052;2023-05-12T12:10:58;101364.47;;;23.73;22.61
65997;BME280;52765;52.258;21.052;2023-05-12T12:13:25;101370.59;;;23.03;22.51
65997;BME280;52765;52.258;21.052;2023-05-12T12:15:50;101377.44;;;22.33;23.40
65997;BME280;52765;52.258;21.052;2023-05-12T12:18:16;101365.59;;;22.73;23.52
65997;BME280;52765;52.258;21.052;2023-05-12T12:20:43;101364.81;;;23.38;22.98
65997;BME280;52765;52.258;21.052;2023-05-12T12:23:09;101358.69;;;23.88;22.99
65997;BME280;52765;52.258;21.052;2023-05-12T12:25:35;101361.31;;;24.08;22.14
65997;BME280;52765;52.258;21.052;2023-05-12T12:28:00;101373.09;;;23.83;22.42
65997;BME280;52765;52.258;21.052;2023-05-12T12:30:29;101372.59;;;23.54;23.06
65997;BME280;52765;52.258;21.052;2023-05-12T12:32:55;101367.94;;;23.48;23.16
65997;BME280;52765;52.258;21.052;2023-05-12T12:35:21;101332.75;;;23.70;22.67
65997;BME280;52765;52.258;21.052;2023-05-12T12:37:48;101369.25;;;23.91;22.98
65997;BME280;52765;52.258;21.052;2023-05-12T12:40:17;101360.78;;;23.92;22.90
65997;BME280;52765;52.258;21.052;2023-05-12T12:42:43;101346.47;;;24.41;22.17
65997;BME280;52765;52.258;21.052;2023-05-12T12:45:09;101349.50;;;24.32;22.29
65997;BME280;52765;52.258;21.052;2023-05-12T12:47:35;101346.84;;;23.87;22.38
65997;BME280;52765;52.258;21.052;2023-05-12T12:50:01;101357.59;;;23.50;23.01